Terminal Aerodrome Forecast
Issued by NWS Paducah, KY

Home | Current Version | Previous Version | Text Only | Print | Product List | Glossary On
Versions: 1 2 3 4 5 6 7 8 9 10 11 12 13 14 15
000
FTUS43 KPAH 192300
TAFEVV
TAF
KEVV 192322Z 2000/2024 05003KT P6SM BKN045
     FM200500 00000KT 4SM BR BKN045
      TEMPO 2010/2014 2SM BR SCT045
     FM201500 01004KT P6SM SCT045=

USA.gov is the U.S. government's official web portal to all federal, state and local government web resources and services.